sensor_id;sensor_type;location;lat;lon;timestamp;temperature;humidity
19110;DHT22;9687;50.836;12.060;2023-08-24T00:00:20;25.20;62.50
19110;DHT22;9687;50.836;12.060;2023-08-24T00:02:48;25.10;62.50
19110;DHT22;9687;50.836;12.060;2023-08-24T00:05:17;25.10;62.50
19110;DHT22;9687;50.836;12.060;2023-08-24T00:07:45;25.10;62.50
19110;DHT22;9687;50.836;12.060;2023-08-24T00:10:14;25.10;62.50
19110;DHT22;9687;50.836;12.060;2023-08-24T00:12:42;25.10;62.50
19110;DHT22;9687;50.836;12.060;2023-08-24T00:15:09;25.00;62.40
19110;DHT22;9687;50.836;12.060;2023-08-24T00:17:39;25.00;62.40
19110;DHT22;9687;50.836;12.060;2023-08-24T00:20:06;25.00;62.40
19110;DHT22;9687;50.836;12.060;2023-08-24T00:22:37;24.90;62.40
19110;DHT22;9687;50.836;12.060;2023-08-24T00:25:06;24.90;62.50
19110;DHT22;9687;50.836;12.060;2023-08-24T00:27:33;24.80;62.60
19110;DHT22;9687;50.836;12.060;2023-08-24T00:30:02;24.70;62.70
19110;DHT22;9687;50.836;12.060;2023-08-24T00:32:29;24.70;63.00
19110;DHT22;9687;50.836;12.060;2023-08-24T00:35:01;24.60;63.00
19110;DHT22;9687;50.836;12.060;2023-08-24T00:37:30;24.60;64.00
19110;DHT22;9687;50.836;12.060;2023-08-24T00:39:59;24.60;63.30
19110;DHT22;9687;50.836;12.060;2023-08-24T00:42:26;24.60;63.40
19110;DHT22;9687;50.836;12.060;2023-08-24T00:44:55;24.50;63.40
19110;DHT22;9687;50.836;12.060;2023-08-24T00:47:22;24.50;63.50
19110;DHT22;9687;50.836;12.060;2023-08-24T00:49:52;24.50;63.50
19110;DHT22;9687;50.836;12.060;2023-08-24T00:52:21;24.40;63.50
19110;DHT22;9687;50.836;12.060;2023-08-24T00:54:49;24.40;63.80
19110;DHT22;9687;50.836;12.060;2023-08-24T00:57:16;24.30;63.80
19110;DHT22;9687;50.836;12.060;2023-08-24T00:59:44;24.30;63.90
19110;DHT22;9687;50.836;12.060;2023-08-24T01:02:12;24.30;64.10
19110;DHT22;9687;50.836;12.060;2023-08-24T01:04:40;24.30;64.10
19110;DHT22;9687;50.836;12.060;2023-08-24T01:07:08;24.20;64.10
19110;DHT22;9687;50.836;12.060;2023-08-24T01:09:37;24.20;64.30
19110;DHT22;9687;50.836;12.060;2023-08-24T01:12:07;24.20;64.50
19110;DHT22;9687;50.836;12.060;2023-08-24T01:14:40;24.20;64.60
19110;DHT22;9687;50.836;12.060;2023-08-24T01:17:09;24.20;64.60
19110;DHT22;9687;50.836;12.060;2023-08-24T01:19:38;24.20;64.60
19110;DHT22;9687;50.836;12.060;2023-08-24T01:22:07;24.20;64.60
19110;DHT22;9687;50.836;12.060;2023-08-24T01:24:38;24.20;64.50
19110;DHT22;9687;50.836;12.060;2023-08-24T01:27:09;24.10;64.50
19110;DHT22;9687;50.836;12.060;2023-08-24T01:29:37;24.10;64.50
19110;DHT22;9687;50.836;12.060;2023-08-24T01:32:09;24.10;64.50
19110;DHT22;9687;50.836;12.060;2023-08-24T01:34:36;24.10;64.50
19110;DHT22;9687;50.836;12.060;2023-08-24T01:37:07;24.10;64.50
19110;DHT22;9687;50.836;12.060;2023-08-24T01:39:36;24.00;64.40
19110;DHT22;9687;50.836;12.060;2023-08-24T01:42:10;24.00;64.40
19110;DHT22;9687;50.836;12.060;2023-08-24T01:44:42;24.00;64.50
19110;DHT22;9687;50.836;12.060;2023-08-24T01:47:14;23.90;64.50
19110;DHT22;9687;50.836;12.060;2023-08-24T01:49:41;23.90;64.60
19110;DHT22;9687;50.836;12.060;2023-08-24T01:52:09;23.90;64.70
19110;DHT22;9687;50.836;12.060;2023-08-24T01:54:37;23.80;64.70
19110;DHT22;9687;50.836;12.060;2023-08-24T01:57:04;23.80;64.90
19110;DHT22;9687;50.836;12.060;2023-08-24T01:59:34;23.80;65.10
19110;DHT22;9687;50.836;12.060;2023-08-24T02:02:01;23.70;65.10
19110;DHT22;9687;50.836;12.060;2023-08-24T02:04:28;23.70;65.20
19110;DHT22;9687;50.836;12.060;2023-08-24T02:06:56;23.60;65.20
19110;DHT22;9687;50.836;12.060;2023-08-24T02:09:25;23.60;65.20
19110;DHT22;9687;50.836;12.060;2023-08-24T02:11:52;23.60;65.30
19110;DHT22;9687;50.836;12.060;2023-08-24T02:14:20;23.60;65.30
19110;DHT22;9687;50.836;12.060;2023-08-24T02:16:49;23.60;65.30
19110;DHT22;9687;50.836;12.060;2023-08-24T02:19:16;23.50;65.30
19110;DHT22;9687;50.836;12.060;2023-08-24T02:21:44;23.50;65.40
19110;DHT22;9687;50.836;12.060;2023-08-24T02:24:13;23.40;65.90
19110;DHT22;9687;50.836;12.060;2023-08-24T02:26:41;23.30;65.90
19110;DHT22;9687;50.836;12.060;2023-08-24T02:29:08;23.20;66.20
19110;DHT22;9687;50.836;12.060;2023-08-24T02:31:36;23.10;66.40
19110;DHT22;9687;50.836;12.060;2023-08-24T02:34:05;23.10;66.40
19110;DHT22;9687;50.836;12.060;2023-08-24T02:36:32;23.10;66.40
19110;DHT22;9687;50.836;12.060;2023-08-24T02:39:00;23.10;66.50
19110;DHT22;9687;50.836;12.060;2023-08-24T02:41:27;23.10;66.40
19110;DHT22;9687;50.836;12.060;2023-08-24T02:43:55;23.10;66.40
19110;DHT22;9687;50.836;12.060;2023-08-24T02:46:24;23.10;66.50
19110;DHT22;9687;50.836;12.060;2023-08-24T02:48:51;23.10;66.60
19110;DHT22;9687;50.836;12.060;2023-08-24T02:51:21;23.00;66.70
19110;DHT22;9687;50.836;12.060;2023-08-24T02:53:48;23.00;66.80
19110;DHT22;9687;50.836;12.060;2023-08-24T02:56:16;23.00;66.80
19110;DHT22;9687;50.836;12.060;2023-08-24T02:58:44;23.00;66.80
19110;DHT22;9687;50.836;12.060;2023-08-24T03:01:11;23.10;66.90
19110;DHT22;9687;50.836;12.060;2023-08-24T03:03:38;23.10;66.90
19110;DHT22;9687;50.836;12.060;2023-08-24T03:06:07;23.10;67.00
19110;DHT22;9687;50.836;12.060;2023-08-24T03:08:36;23.10;67.00
19110;DHT22;9687;50.836;12.060;2023-08-24T03:11:03;23.10;67.00
19110;DHT22;9687;50.836;12.060;2023-08-24T03:13:30;23.10;67.10
19110;DHT22;9687;50.836;12.060;2023-08-24T03:16:02;23.10;67.90
19110;DHT22;9687;50.836;12.060;2023-08-24T03:18:30;23.10;67.10
19110;DHT22;9687;50.836;12.060;2023-08-24T03:20:57;23.10;67.10
19110;DHT22;9687;50.836;12.060;2023-08-24T03:23:24;23.10;67.10
19110;DHT22;9687;50.836;12.060;2023-08-24T03:25:55;23.10;67.00
19110;DHT22;9687;50.836;12.060;2023-08-24T03:28:22;23.10;67.00
19110;DHT22;9687;50.836;12.060;2023-08-24T03:30:50;23.00;67.00
19110;DHT22;9687;50.836;12.060;2023-08-24T03:33:18;23.00;67.10
19110;DHT22;9687;50.836;12.060;2023-08-24T03:35:46;23.00;67.20
19110;DHT22;9687;50.836;12.060;2023-08-24T03:38:13;23.00;67.20
19110;DHT22;9687;50.836;12.060;2023-08-24T03:40:41;23.00;67.20
19110;DHT22;9687;50.836;12.060;2023-08-24T03:43:10;23.00;67.30
19110;DHT22;9687;50.836;12.060;2023-08-24T03:45:37;22.90;67.20
19110;DHT22;9687;50.836;12.060;2023-08-24T03:48:06;23.00;67.40
19110;DHT22;9687;50.836;12.060;2023-08-24T03:50:33;22.90;67.30
19110;DHT22;9687;50.836;12.060;2023-08-24T03:53:01;22.90;67.40
19110;DHT22;9687;50.836;12.060;2023-08-24T03:55:28;22.80;67.40
19110;DHT22;9687;50.836;12.060;2023-08-24T03:57:55;22.80;67.50
19110;DHT22;9687;50.836;12.060;2023-08-24T04:00:25;22.80;67.60
19110;DHT22;9687;50.836;12.060;2023-08-24T04:02:53;22.70;67.60
19110;DHT22;9687;50.836;12.060;2023-08-24T04:05:20;22.70;67.70
19110;DHT22;9687;50.836;12.060;2023-08-24T04:07:48;22.60;67.80
19110;DHT22;9687;50.836;12.060;2023-08-24T04:10:15;22.60;67.90
19110;DHT22;9687;50.836;12.060;2023-08-24T04:12:43;22.60;68.10
19110;DHT22;9687;50.836;12.060;2023-08-24T04:15:10;22.50;68.00
19110;DHT22;9687;50.836;12.060;2023-08-24T04:17:39;22.50;68.10
19110;DHT22;9687;50.836;12.060;2023-08-24T04:20:08;22.50;68.10
19110;DHT22;9687;50.836;12.060;2023-08-24T04:22:36;22.50;68.10
19110;DHT22;9687;50.836;12.060;2023-08-24T04:25:04;22.50;68.20
19110;DHT22;9687;50.836;12.060;2023-08-24T04:27:32;22.50;68.10
19110;DHT22;9687;50.836;12.060;2023-08-24T04:29:59;22.50;68.10
19110;DHT22;9687;50.836;12.060;2023-08-24T04:32:31;22.50;68.10
19110;DHT22;9687;50.836;12.060;2023-08-24T04:35:00;22.60;68.20
19110;DHT22;9687;50.836;12.060;2023-08-24T04:37:27;22.50;68.10
19110;DHT22;9687;50.836;12.060;2023-08-24T04:39:58;22.60;68.20
19110;DHT22;9687;50.836;12.060;2023-08-24T04:42:25;22.60;68.20
19110;DHT22;9687;50.836;12.060;2023-08-24T04:44:52;22.50;68.20
19110;DHT22;9687;50.836;12.060;2023-08-24T04:47:20;22.50;68.30
19110;DHT22;9687;50.836;12.060;2023-08-24T04:49:47;22.50;68.40
19110;DHT22;9687;50.836;12.060;2023-08-24T04:52:16;22.50;68.50
19110;DHT22;9687;50.836;12.060;2023-08-24T04:54:44;22.50;68.70
19110;DHT22;9687;50.836;12.060;2023-08-24T04:57:12;22.40;68.60
19110;DHT22;9687;50.836;12.060;2023-08-24T04:59:40;22.30;68.70
19110;DHT22;9687;50.836;12.060;2023-08-24T05:02:07;22.30;69.00
19110;DHT22;9687;50.836;12.060;2023-08-24T05:04:35;22.20;69.10
19110;DHT22;9687;50.836;12.060;2023-08-24T05:07:03;22.20;69.40
19110;DHT22;9687;50.836;12.060;2023-08-24T05:09:33;22.20;69.50
19110;DHT22;9687;50.836;12.060;2023-08-24T05:12:01;22.20;69.50
19110;DHT22;9687;50.836;12.060;2023-08-24T05:14:29;22.20;69.50
19110;DHT22;9687;50.836;12.060;2023-08-24T05:16:57;22.20;69.50
19110;DHT22;9687;50.836;12.060;2023-08-24T05:19:25;22.30;69.70
19110;DHT22;9687;50.836;12.060;2023-08-24T05:21:54;22.30;69.80
19110;DHT22;9687;50.836;12.060;2023-08-24T05:24:32;22.30;69.80
19110;DHT22;9687;50.836;12.060;2023-08-24T05:27:01;22.30;69.90
19110;DHT22;9687;50.836;12.060;2023-08-24T05:29:31;22.30;69.90
19110;DHT22;9687;50.836;12.060;2023-08-24T05:32:01;22.20;70.00
19110;DHT22;9687;50.836;12.060;2023-08-24T05:34:30;22.20;70.30
19110;DHT22;9687;50.836;12.060;2023-08-24T05:37:00;22.20;70.60
19110;DHT22;9687;50.836;12.060;2023-08-24T05:39:28;22.20;70.90
19110;DHT22;9687;50.836;12.060;2023-08-24T05:41:59;22.20;71.40
19110;DHT22;9687;50.836;12.060;2023-08-24T05:44:27;22.20;71.40
19110;DHT22;9687;50.836;12.060;2023-08-24T05:46:56;22.10;71.50
19110;DHT22;9687;50.836;12.060;2023-08-24T05:49:24;22.00;71.80
19110;DHT22;9687;50.836;12.060;2023-08-24T05:51:58;21.90;72.40
19110;DHT22;9687;50.836;12.060;2023-08-24T05:54:36;21.90;72.80
19110;DHT22;9687;50.836;12.060;2023-08-24T05:57:06;21.80;73.10
19110;DHT22;9687;50.836;12.060;2023-08-24T05:59:33;21.80;73.40
19110;DHT22;9687;50.836;12.060;2023-08-24T06:02:08;21.80;73.60
19110;DHT22;9687;50.836;12.060;2023-08-24T06:04:38;21.80;73.80
19110;DHT22;9687;50.836;12.060;2023-08-24T06:07:09;21.80;73.80
19110;DHT22;9687;50.836;12.060;2023-08-24T06:09:40;21.90;73.90
19110;DHT22;9687;50.836;12.060;2023-08-24T06:12:10;21.90;73.90
19110;DHT22;9687;50.836;12.060;2023-08-24T06:14:37;22.00;74.10
19110;DHT22;9687;50.836;12.060;2023-08-24T06:17:05;22.00;74.20
19110;DHT22;9687;50.836;12.060;2023-08-24T06:19:34;22.00;74.30
19110;DHT22;9687;50.836;12.060;2023-08-24T06:22:03;22.00;74.50
19110;DHT22;9687;50.836;12.060;2023-08-24T06:24:33;22.10;74.60
19110;DHT22;9687;50.836;12.060;2023-08-24T06:27:02;22.20;74.80
19110;DHT22;9687;50.836;12.060;2023-08-24T06:29:32;22.20;74.80
19110;DHT22;9687;50.836;12.060;2023-08-24T06:32:00;22.30;75.20
19110;DHT22;9687;50.836;12.060;2023-08-24T06:34:28;22.30;75.20
19110;DHT22;9687;50.836;12.060;2023-08-24T06:37:00;22.30;75.10
19110;DHT22;9687;50.836;12.060;2023-08-24T06:39:30;22.40;75.10
19110;DHT22;9687;50.836;12.060;2023-08-24T06:41:58;22.50;75.10
19110;DHT22;9687;50.836;12.060;2023-08-24T06:44:26;22.50;75.00
19110;DHT22;9687;50.836;12.060;2023-08-24T06:46:54;22.60;75.10
19110;DHT22;9687;50.836;12.060;2023-08-24T06:49:23;22.70;75.30
19110;DHT22;9687;50.836;12.060;2023-08-24T06:51:51;22.80;75.20
19110;DHT22;9687;50.836;12.060;2023-08-24T06:54:21;22.90;75.40
19110;DHT22;9687;50.836;12.060;2023-08-24T06:56:53;23.00;76.00
19110;DHT22;9687;50.836;12.060;2023-08-24T06:59:21;23.10;75.20
19110;DHT22;9687;50.836;12.060;2023-08-24T07:01:49;23.20;75.30
19110;DHT22;9687;50.836;12.060;2023-08-24T07:04:19;23.30;75.20
19110;DHT22;9687;50.836;12.060;2023-08-24T07:06:50;23.40;75.10
19110;DHT22;9687;50.836;12.060;2023-08-24T07:09:24;23.50;75.10
19110;DHT22;9687;50.836;12.060;2023-08-24T07:11:54;23.60;75.00
19110;DHT22;9687;50.836;12.060;2023-08-24T07:14:22;23.80;75.00
19110;DHT22;9687;50.836;12.060;2023-08-24T07:17:11;23.90;74.70
19110;DHT22;9687;50.836;12.060;2023-08-24T07:20:17;24.00;74.70
19110;DHT22;9687;50.836;12.060;2023-08-24T07:22:53;24.20;74.80
19110;DHT22;9687;50.836;12.060;2023-08-24T07:25:20;24.30;74.80
19110;DHT22;9687;50.836;12.060;2023-08-24T07:27:53;24.40;74.90
19110;DHT22;9687;50.836;12.060;2023-08-24T07:30:25;24.60;74.80
19110;DHT22;9687;50.836;12.060;2023-08-24T07:32:53;24.80;75.10
19110;DHT22;9687;50.836;12.060;2023-08-24T07:35:23;25.00;76.30
19110;DHT22;9687;50.836;12.060;2023-08-24T07:37:51;25.30;77.50
19110;DHT22;9687;50.836;12.060;2023-08-24T07:40:19;25.80;78.40
19110;DHT22;9687;50.836;12.060;2023-08-24T07:42:53;26.30;78.00
19110;DHT22;9687;50.836;12.060;2023-08-24T07:45:22;26.90;77.30
19110;DHT22;9687;50.836;12.060;2023-08-24T07:47:57;27.50;76.50
19110;DHT22;9687;50.836;12.060;2023-08-24T07:50:27;28.10;75.20
19110;DHT22;9687;50.836;12.060;2023-08-24T07:52:56;28.70;73.70
19110;DHT22;9687;50.836;12.060;2023-08-24T07:55:26;29.30;72.40
19110;DHT22;9687;50.836;12.060;2023-08-24T07:58:19;29.80;70.80
19110;DHT22;9687;50.836;12.060;2023-08-24T08:00:51;30.40;69.00
19110;DHT22;9687;50.836;12.060;2023-08-24T08:03:45;30.80;67.10
19110;DHT22;9687;50.836;12.060;2023-08-24T08:06:17;31.20;66.00
19110;DHT22;9687;50.836;12.060;2023-08-24T08:08:44;31.60;65.40
19110;DHT22;9687;50.836;12.060;2023-08-24T08:11:13;32.10;63.90
19110;DHT22;9687;50.836;12.060;2023-08-24T08:13:41;32.50;62.60
19110;DHT22;9687;50.836;12.060;2023-08-24T08:16:10;33.00;61.70
19110;DHT22;9687;50.836;12.060;2023-08-24T08:18:38;33.40;60.50
19110;DHT22;9687;50.836;12.060;2023-08-24T08:21:14;33.80;59.40
19110;DHT22;9687;50.836;12.060;2023-08-24T08:23:45;34.20;58.30
19110;DHT22;9687;50.836;12.060;2023-08-24T08:26:14;34.50;57.20
19110;DHT22;9687;50.836;12.060;2023-08-24T08:28:51;34.80;56.30
19110;DHT22;9687;50.836;12.060;2023-08-24T08:31:21;35.10;55.70
19110;DHT22;9687;50.836;12.060;2023-08-24T08:34:00;35.40;55.20
19110;DHT22;9687;50.836;12.060;2023-08-24T08:36:33;35.80;54.50
19110;DHT22;9687;50.836;12.060;2023-08-24T08:39:06;36.10;53.90
19110;DHT22;9687;50.836;12.060;2023-08-24T08:41:38;36.40;53.20
19110;DHT22;9687;50.836;12.060;2023-08-24T08:44:19;36.50;51.80
19110;DHT22;9687;50.836;12.060;2023-08-24T08:46:54;36.40;50.90
19110;DHT22;9687;50.836;12.060;2023-08-24T08:49:32;36.40;50.40
19110;DHT22;9687;50.836;12.060;2023-08-24T08:52:02;36.30;49.90
19110;DHT22;9687;50.836;12.060;2023-08-24T08:54:36;36.10;49.70
19110;DHT22;9687;50.836;12.060;2023-08-24T08:57:04;35.80;49.80
19110;DHT22;9687;50.836;12.060;2023-08-24T08:59:32;35.50;49.40
19110;DHT22;9687;50.836;12.060;2023-08-24T09:02:00;35.20;49.30
19110;DHT22;9687;50.836;12.060;2023-08-24T09:04:51;34.70;49.80
19110;DHT22;9687;50.836;12.060;2023-08-24T09:07:19;34.30;50.30
19110;DHT22;9687;50.836;12.060;2023-08-24T09:09:50;33.90;50.50
19110;DHT22;9687;50.836;12.060;2023-08-24T09:12:18;33.70;50.80
19110;DHT22;9687;50.836;12.060;2023-08-24T09:14:45;33.40;50.90
19110;DHT22;9687;50.836;12.060;2023-08-24T09:17:19;33.20;51.00
19110;DHT22;9687;50.836;12.060;2023-08-24T09:19:47;33.10;51.20
19110;DHT22;9687;50.836;12.060;2023-08-24T09:22:19;32.80;51.50
19110;DHT22;9687;50.836;12.060;2023-08-24T09:24:49;32.50;51.60
19110;DHT22;9687;50.836;12.060;2023-08-24T09:27:18;32.30;51.80
19110;DHT22;9687;50.836;12.060;2023-08-24T09:29:47;31.90;52.10
19110;DHT22;9687;50.836;12.060;2023-08-24T09:32:15;31.60;52.30
19110;DHT22;9687;50.836;12.060;2023-08-24T09:34:50;31.30;52.90
19110;DHT22;9687;50.836;12.060;2023-08-24T09:37:40;31.00;53.40
19110;DHT22;9687;50.836;12.060;2023-08-24T09:40:23;30.70;53.90
19110;DHT22;9687;50.836;12.060;2023-08-24T09:42:52;30.40;54.50
19110;DHT22;9687;50.836;12.060;2023-08-24T09:45:21;30.10;55.10
19110;DHT22;9687;50.836;12.060;2023-08-24T09:47:51;29.80;55.50
19110;DHT22;9687;50.836;12.060;2023-08-24T09:50:22;29.60;55.50
19110;DHT22;9687;50.836;12.060;2023-08-24T09:52:51;29.40;55.90
19110;DHT22;9687;50.836;12.060;2023-08-24T09:55:23;29.20;56.20
19110;DHT22;9687;50.836;12.060;2023-08-24T09:57:57;29.00;56.50
19110;DHT22;9687;50.836;12.060;2023-08-24T10:00:32;28.90;57.00
19110;DHT22;9687;50.836;12.060;2023-08-24T10:03:02;28.70;57.00
19110;DHT22;9687;50.836;12.060;2023-08-24T10:05:34;28.50;57.20
19110;DHT22;9687;50.836;12.060;2023-08-24T10:08:09;28.40;57.40
19110;DHT22;9687;50.836;12.060;2023-08-24T10:10:42;28.30;57.60
19110;DHT22;9687;50.836;12.060;2023-08-24T10:13:39;28.20;57.70
19110;DHT22;9687;50.836;12.060;2023-08-24T10:16:25;28.00;57.90
19110;DHT22;9687;50.836;12.060;2023-08-24T10:19:17;27.80;57.80
19110;DHT22;9687;50.836;12.060;2023-08-24T10:21:53;27.80;58.20
19110;DHT22;9687;50.836;12.060;2023-08-24T10:24:26;27.60;58.40
19110;DHT22;9687;50.836;12.060;2023-08-24T10:27:08;27.60;59.10
19110;DHT22;9687;50.836;12.060;2023-08-24T10:29:40;27.50;59.60
19110;DHT22;9687;50.836;12.060;2023-08-24T10:32:27;27.50;60.00
19110;DHT22;9687;50.836;12.060;2023-08-24T10:35:01;27.50;60.30
19110;DHT22;9687;50.836;12.060;2023-08-24T10:37:52;27.40;60.40
19110;DHT22;9687;50.836;12.060;2023-08-24T10:40:33;27.50;60.50
19110;DHT22;9687;50.836;12.060;2023-08-24T10:43:06;27.40;60.30
19110;DHT22;9687;50.836;12.060;2023-08-24T10:45:55;27.50;60.40
19110;DHT22;9687;50.836;12.060;2023-08-24T10:48:27;27.40;60.30
19110;DHT22;9687;50.836;12.060;2023-08-24T10:51:19;27.40;60.30
19110;DHT22;9687;50.836;12.060;2023-08-24T10:54:05;27.40;60.30
19110;DHT22;9687;50.836;12.060;2023-08-24T10:56:34;27.30;60.30
19110;DHT22;9687;50.836;12.060;2023-08-24T10:59:11;27.30;60.70
19110;DHT22;9687;50.836;12.060;2023-08-24T11:01:40;27.30;60.80
19110;DHT22;9687;50.836;12.060;2023-08-24T11:04:10;27.30;61.20
19110;DHT22;9687;50.836;12.060;2023-08-24T11:06:52;27.30;60.90
19110;DHT22;9687;50.836;12.060;2023-08-24T11:09:20;27.30;60.80
19110;DHT22;9687;50.836;12.060;2023-08-24T11:11:55;27.30;60.90
19110;DHT22;9687;50.836;12.060;2023-08-24T11:14:28;27.30;60.80
19110;DHT22;9687;50.836;12.060;2023-08-24T11:19:54;27.20;61.40
19110;DHT22;9687;50.836;12.060;2023-08-24T11:22:26;27.40;61.60
19110;DHT22;9687;50.836;12.060;2023-08-24T11:24:55;27.80;61.70
19110;DHT22;9687;50.836;12.060;2023-08-24T11:27:24;28.40;60.90
19110;DHT22;9687;50.836;12.060;2023-08-24T11:29:59;28.90;60.00
19110;DHT22;9687;50.836;12.060;2023-08-24T11:32:39;29.40;59.10
19110;DHT22;9687;50.836;12.060;2023-08-24T11:35:10;29.60;58.30
19110;DHT22;9687;50.836;12.060;2023-08-24T11:37:41;29.70;58.00
19110;DHT22;9687;50.836;12.060;2023-08-24T11:40:16;29.60;57.90
19110;DHT22;9687;50.836;12.060;2023-08-24T11:42:48;29.50;57.90
19110;DHT22;9687;50.836;12.060;2023-08-24T11:45:21;29.40;58.10
19110;DHT22;9687;50.836;12.060;2023-08-24T11:47:53;29.30;58.30
19110;DHT22;9687;50.836;12.060;2023-08-24T11:50:27;29.30;58.20
19110;DHT22;9687;50.836;12.060;2023-08-24T11:52:58;29.20;58.20
19110;DHT22;9687;50.836;12.060;2023-08-24T11:55:34;29.00;58.40
19110;DHT22;9687;50.836;12.060;2023-08-24T11:58:15;29.00;58.50
19110;DHT22;9687;50.836;12.060;2023-08-24T12:00:48;28.90;58.30
19110;DHT22;9687;50.836;12.060;2023-08-24T12:03:16;28.90;58.40
19110;DHT22;9687;50.836;12.060;2023-08-24T12:05:47;28.90;58.50
19110;DHT22;9687;50.836;12.060;2023-08-24T12:08:16;29.00;58.60
19110;DHT22;9687;50.836;12.060;2023-08-24T12:10:47;29.00;58.40
19110;DHT22;9687;50.836;12.060;2023-08-24T12:13:17;29.00;58.30
19110;DHT22;9687;50.836;12.060;2023-08-24T12:16:00;29.00;58.30
19110;DHT22;9687;50.836;12.060;2023-08-24T12:18:46;29.00;58.10
19110;DHT22;9687;50.836;12.060;2023-08-24T12:21:18;28.90;57.90
19110;DHT22;9687;50.836;12.060;2023-08-24T12:23:56;28.90;57.60
19110;DHT22;9687;50.836;12.060;2023-08-24T12:26:25;28.90;57.80
19110;DHT22;9687;50.836;12.060;2023-08-24T12:28:55;28.90;58.10
19110;DHT22;9687;50.836;12.060;2023-08-24T12:31:43;29.00;57.80
19110;DHT22;9687;50.836;12.060;2023-08-24T12:34:13;29.00;57.80
19110;DHT22;9687;50.836;12.060;2023-08-24T12:36:42;29.10;58.10
19110;DHT22;9687;50.836;12.060;2023-08-24T12:39:10;29.20;58.00
19110;DHT22;9687;50.836;12.060;2023-08-24T12:41:40;29.30;57.80
19110;DHT22;9687;50.836;12.060;2023-08-24T12:44:08;29.30;57.50
19110;DHT22;9687;50.836;12.060;2023-08-24T12:46:38;29.30;57.20
19110;DHT22;9687;50.836;12.060;2023-08-24T12:49:07;29.40;57.30
19110;DHT22;9687;50.836;12.060;2023-08-24T12:51:40;29.40;57.40
19110;DHT22;9687;50.836;12.060;2023-08-24T12:54:11;29.30;57.20
19110;DHT22;9687;50.836;12.060;2023-08-24T12:56:39;29.40;57.20
19110;DHT22;9687;50.836;12.060;2023-08-24T12:59:11;29.40;57.10
19110;DHT22;9687;50.836;12.060;2023-08-24T13:01:49;29.40;56.90
19110;DHT22;9687;50.836;12.060;2023-08-24T13:04:18;29.40;56.50
19110;DHT22;9687;50.836;12.060;2023-08-24T13:06:48;29.40;56.50
19110;DHT22;9687;50.836;12.060;2023-08-24T13:09:15;29.40;56.70
19110;DHT22;9687;50.836;12.060;2023-08-24T13:11:44;29.40;56.60
19110;DHT22;9687;50.836;12.060;2023-08-24T13:14:12;29.40;56.60
19110;DHT22;9687;50.836;12.060;2023-08-24T13:16:40;29.40;56.40
19110;DHT22;9687;50.836;12.060;2023-08-24T13:19:08;29.40;56.00
19110;DHT22;9687;50.836;12.060;2023-08-24T13:21:37;29.40;56.00
19110;DHT22;9687;50.836;12.060;2023-08-24T13:24:04;29.40;55.90
19110;DHT22;9687;50.836;12.060;2023-08-24T13:26:32;29.40;56.00
19110;DHT22;9687;50.836;12.060;2023-08-24T13:29:00;29.40;55.70
19110;DHT22;9687;50.836;12.060;2023-08-24T13:31:28;29.40;55.80
19110;DHT22;9687;50.836;12.060;2023-08-24T13:33:57;29.30;55.90
19110;DHT22;9687;50.836;12.060;2023-08-24T13:36:25;29.40;56.00
19110;DHT22;9687;50.836;12.060;2023-08-24T13:38:54;29.40;56.20
19110;DHT22;9687;50.836;12.060;2023-08-24T13:41:31;29.40;56.20
19110;DHT22;9687;50.836;12.060;2023-08-24T13:43:58;29.40;56.20
19110;DHT22;9687;50.836;12.060;2023-08-24T13:46:26;29.40;56.30
19110;DHT22;9687;50.836;12.060;2023-08-24T13:48:55;29.50;56.10
19110;DHT22;9687;50.836;12.060;2023-08-24T13:51:24;29.50;56.10
19110;DHT22;9687;50.836;12.060;2023-08-24T13:53:56;29.50;56.10
19110;DHT22;9687;50.836;12.060;2023-08-24T13:56:25;29.50;55.90
19110;DHT22;9687;50.836;12.060;2023-08-24T13:58:52;29.60;56.50
19110;DHT22;9687;50.836;12.060;2023-08-24T14:01:20;29.60;56.00
19110;DHT22;9687;50.836;12.060;2023-08-24T14:03:49;29.60;56.00
19110;DHT22;9687;50.836;12.060;2023-08-24T14:06:16;29.60;56.00
19110;DHT22;9687;50.836;12.060;2023-08-24T14:08:44;29.60;55.90
19110;DHT22;9687;50.836;12.060;2023-08-24T14:11:13;29.60;55.90
19110;DHT22;9687;50.836;12.060;2023-08-24T14:13:52;29.60;55.90
19110;DHT22;9687;50.836;12.060;2023-08-24T14:16:40;29.60;55.90
19110;DHT22;9687;50.836;12.060;2023-08-24T14:19:07;29.70;55.90
19110;DHT22;9687;50.836;12.060;2023-08-24T14:21:53;29.70;55.90
19110;DHT22;9687;50.836;12.060;2023-08-24T14:24:20;29.70;55.80
19110;DHT22;9687;50.836;12.060;2023-08-24T14:26:50;29.70;55.80
19110;DHT22;9687;50.836;12.060;2023-08-24T14:29:36;29.70;56.10
19110;DHT22;9687;50.836;12.060;2023-08-24T14:32:03;29.60;56.00
19110;DHT22;9687;50.836;12.060;2023-08-24T14:34:37;29.70;56.30
19110;DHT22;9687;50.836;12.060;2023-08-24T14:37:11;29.70;56.40
19110;DHT22;9687;50.836;12.060;2023-08-24T14:39:42;29.70;56.30
19110;DHT22;9687;50.836;12.060;2023-08-24T14:42:16;29.70;56.40
19110;DHT22;9687;50.836;12.060;2023-08-24T14:44:44;29.70;56.40
19110;DHT22;9687;50.836;12.060;2023-08-24T14:47:13;29.70;56.40
19110;DHT22;9687;50.836;12.060;2023-08-24T14:49:40;29.70;56.50
19110;DHT22;9687;50.836;12.060;2023-08-24T14:52:14;29.60;56.50
19110;DHT22;9687;50.836;12.060;2023-08-24T14:54:42;29.70;56.50
19110;DHT22;9687;50.836;12.060;2023-08-24T14:57:10;29.70;56.60
19110;DHT22;9687;50.836;12.060;2023-08-24T14:59:40;29.70;56.60
19110;DHT22;9687;50.836;12.060;2023-08-24T15:02:09;29.60;56.60
19110;DHT22;9687;50.836;12.060;2023-08-24T15:04:36;29.70;56.80
19110;DHT22;9687;50.836;12.060;2023-08-24T15:07:04;29.70;56.90
19110;DHT22;9687;50.836;12.060;2023-08-24T15:09:33;29.70;56.60
19110;DHT22;9687;50.836;12.060;2023-08-24T15:12:00;29.70;56.40
19110;DHT22;9687;50.836;12.060;2023-08-24T15:14:30;29.70;56.10
19110;DHT22;9687;50.836;12.060;2023-08-24T15:16:59;29.70;55.40
19110;DHT22;9687;50.836;12.060;2023-08-24T15:19:27;29.70;55.40
19110;DHT22;9687;50.836;12.060;2023-08-24T15:21:57;29.60;55.40
19110;DHT22;9687;50.836;12.060;2023-08-24T15:24:25;29.60;55.00
19110;DHT22;9687;50.836;12.060;2023-08-24T15:26:52;29.60;54.90
19110;DHT22;9687;50.836;12.060;2023-08-24T15:29:21;29.60;54.80
19110;DHT22;9687;50.836;12.060;2023-08-24T15:31:51;29.60;54.50
19110;DHT22;9687;50.836;12.060;2023-08-24T15:34:21;29.60;54.20
19110;DHT22;9687;50.836;12.060;2023-08-24T15:36:49;29.60;54.50
19110;DHT22;9687;50.836;12.060;2023-08-24T15:39:19;29.70;53.80
19110;DHT22;9687;50.836;12.060;2023-08-24T15:41:47;29.70;53.50
19110;DHT22;9687;50.836;12.060;2023-08-24T15:44:15;29.70;53.60
19110;DHT22;9687;50.836;12.060;2023-08-24T15:46:42;29.70;53.50
19110;DHT22;9687;50.836;12.060;2023-08-24T15:49:12;29.70;53.30
19110;DHT22;9687;50.836;12.060;2023-08-24T15:51:47;29.70;53.20
19110;DHT22;9687;50.836;12.060;2023-08-24T15:54:16;29.70;53.10